createdAt,value
2019-05-23T00:03:31.123Z,99283.19
2019-05-23T00:08:57.834Z,99281.38
2019-05-23T00:14:10.445Z,99288.61
2019-05-23T00:19:19.216Z,99289.46
2019-05-23T00:24:25.047Z,99286.47
2019-05-23T00:29:31.547Z,99287.19
2019-05-23T00:34:38.690Z,99284.26
2019-05-23T00:39:47.178Z,99285.05
2019-05-23T00:44:54.206Z,99284.69
2019-05-23T00:50:00.037Z,99288.24
2019-05-23T00:55:08.660Z,99298.47
2019-05-23T01:00:19.463Z,99301.20
2019-05-23T01:05:27.073Z,99306.09
2019-05-23T01:10:34.186Z,99320.08
2019-05-23T01:15:44.147Z,99315.95
2019-05-23T01:21:21.750Z,99314.24
2019-05-23T01:26:28.925Z,99314.28
2019-05-23T01:31:38.798Z,99309.75
2019-05-23T01:36:46.279Z,99302.16
2019-05-23T01:41:52.364Z,99302.89
2019-05-23T01:46:58.212Z,99301.55
2019-05-23T01:52:05.589Z,99297.97
2019-05-23T01:57:11.659Z,99300.83
2019-05-23T02:02:18.833Z,99310.55
2019-05-23T02:07:24.973Z,99309.36
2019-05-23T02:12:30.999Z,99308.29
2019-05-23T02:17:39.558Z,99308.57
2019-05-23T02:22:45.557Z,99306.06
2019-05-23T02:27:51.258Z,99311.80
2019-05-23T02:32:56.687Z,99301.81
2019-05-23T02:38:21.060Z,99302.31
2019-05-23T02:43:31.997Z,99310.51
2019-05-23T02:48:44.026Z,99306.98
2019-05-23T02:53:54.193Z,99306.83
2019-05-23T02:59:22.610Z,99309.88
2019-05-23T03:04:31.349Z,99307.38
2019-05-23T03:09:40.153Z,99309.59
2019-05-23T03:14:48.397Z,99315.72
2019-05-23T03:19:59.785Z,99310.80
2019-05-23T03:25:24.868Z,99312.88
2019-05-23T03:30:33.875Z,99306.77
2019-05-23T03:35:43.383Z,99303.61
2019-05-23T03:40:50.854Z,99303.61
2019-05-23T03:46:02.525Z,99303.61
2019-05-23T03:51:09.510Z,99302.80
2019-05-23T03:56:16.785Z,99301.95
2019-05-23T04:01:43.998Z,99298.89
2019-05-23T04:06:33.207Z,99298.18
2019-05-23T04:11:39.213Z,99302.63
2019-05-23T04:16:45.135Z,99309.20
2019-05-23T04:21:56.053Z,99315.02
2019-05-23T04:27:01.766Z,99304.20
2019-05-23T04:32:09.314Z,99314.75
2019-05-23T04:37:14.993Z,99318.50
2019-05-23T04:42:20.901Z,99326.52
2019-05-23T04:47:27.111Z,99328.89
2019-05-23T04:52:33.427Z,99329.94
2019-05-23T04:57:38.991Z,99334.06
2019-05-23T05:02:46.110Z,99318.56
2019-05-23T05:07:51.737Z,99337.36
2019-05-23T05:13:01.599Z,99349.48
2019-05-23T05:18:09.215Z,99344.45
2019-05-23T05:23:15.434Z,99351.91
2019-05-23T05:28:21.343Z,99356.02
2019-05-23T05:33:26.905Z,99366.11
2019-05-23T05:38:33.630Z,99354.16
2019-05-23T05:43:40.456Z,99362.83
2019-05-23T05:48:49.112Z,99368.45
2019-05-23T05:53:55.054Z,99371.78
2019-05-23T05:59:01.444Z,99372.87
2019-05-23T06:04:08.959Z,99379.14
2019-05-23T06:09:27.407Z,99380.14
2019-05-23T06:14:33.109Z,99376.85
2019-05-23T06:19:39.597Z,99385.75
2019-05-23T06:24:50.844Z,99382.11
2019-05-23T06:29:52.399Z,99378.90
2019-05-23T06:34:58.556Z,99387.22
2019-05-23T06:40:06.302Z,99389.13
2019-05-23T06:45:16.348Z,99383.32
2019-05-23T06:50:24.330Z,99384.29
2019-05-23T06:55:30.202Z,99395.26
2019-05-23T07:00:37.366Z,99398.08
2019-05-23T07:05:43.107Z,99386.87
2019-05-23T07:10:51.662Z,99388.72
2019-05-23T07:15:57.163Z,99395.92
2019-05-23T07:21:02.876Z,99396.69
2019-05-23T07:26:08.967Z,99400.05
2019-05-23T07:31:14.910Z,99394.94
2019-05-23T07:36:20.587Z,99400.20
2019-05-23T07:41:26.143Z,99406.96
2019-05-23T07:46:32.066Z,99405.54
2019-05-23T07:51:39.089Z,99407.23
2019-05-23T07:56:45.434Z,99401.40
2019-05-23T08:01:58.610Z,99397.97
2019-05-23T08:07:06.421Z,99401.58
2019-05-23T08:12:12.219Z,99389.91
2019-05-23T08:17:17.958Z,99396.00
2019-05-23T08:22:24.036Z,99388.67
2019-05-23T08:27:30.648Z,99397.63
2019-05-23T08:32:36.352Z,99389.69
2019-05-23T08:37:42.313Z,99394.16
2019-05-23T08:42:49.087Z,99392.95
2019-05-23T08:47:54.794Z,99404.20
2019-05-23T08:53:01.104Z,99400.51
2019-05-23T08:58:12.861Z,99404.83
2019-05-23T09:03:20.020Z,99401.11
2019-05-23T09:08:27.213Z,99393.85
2019-05-23T09:13:32.758Z,99397.59
2019-05-23T09:18:39.595Z,99388.47
2019-05-23T09:23:45.173Z,99389.13
2019-05-23T09:28:51.091Z,99384.03
2019-05-23T09:33:56.801Z,99387.56
2019-05-23T09:39:02.832Z,99391.31
2019-05-23T09:44:08.616Z,99370.78
2019-05-23T09:49:14.224Z,99380.74
2019-05-23T09:54:20.895Z,99374.63
2019-05-23T09:59:26.614Z,99375.37
2019-05-23T10:04:32.160Z,99381.17
2019-05-23T10:09:37.678Z,99380.52
2019-05-23T10:14:43.137Z,99374.24
2019-05-23T10:19:48.662Z,99370.69
2019-05-23T10:24:54.259Z,99382.75
2019-05-23T10:29:59.794Z,99380.07
2019-05-23T10:35:08.164Z,99370.94
2019-05-23T10:40:15.858Z,99383.53
2019-05-23T10:45:21.518Z,99373.28
2019-05-23T10:50:41.992Z,99369.30
2019-05-23T10:55:38.957Z,99357.86
2019-05-23T11:00:46.886Z,99357.30
2019-05-23T11:05:52.388Z,99346.37
2019-05-23T11:10:58.207Z,99349.28
2019-05-23T11:16:04.593Z,99349.76
2019-05-23T11:21:10.656Z,99364.31
2019-05-23T11:26:16.472Z,99356.93
2019-05-23T11:31:22.398Z,99346.13
2019-05-23T11:36:35.858Z,99340.03
2019-05-23T11:41:35.356Z,99325.08
2019-05-23T11:46:41.004Z,99333.56
2019-05-23T11:51:46.633Z,99331.53
2019-05-23T11:56:53.736Z,99323.86
2019-05-23T12:02:18.691Z,99321.41
2019-05-23T12:07:31.495Z,99317.34
2019-05-23T12:12:37.023Z,99312.78
2019-05-23T12:17:42.943Z,99316.64
2019-05-23T12:22:50.019Z,99316.77
2019-05-23T12:27:55.568Z,99299.70
2019-05-23T12:33:01.282Z,99305.09
2019-05-23T12:38:08.826Z,99300.33
2019-05-23T12:43:14.621Z,99303.91
2019-05-23T12:48:30.433Z,99295.52
2019-05-23T12:53:36.018Z,99290.08
2019-05-23T12:58:46.555Z,99280.89
2019-05-23T13:03:52.212Z,99290.23
2019-05-23T13:08:59.390Z,99282.80
2019-05-23T13:14:05.863Z,99275.77
2019-05-23T13:19:11.752Z,99275.45
2019-05-23T13:24:17.661Z,99277.43
2019-05-23T13:29:24.785Z,99264.48
2019-05-23T13:34:30.543Z,99264.20
2019-05-23T13:39:37.431Z,99268.73
2019-05-23T13:44:43.086Z,99258.06
2019-05-23T13:49:48.608Z,99265.59
2019-05-23T13:54:54.148Z,99247.16
2019-05-23T14:00:01.706Z,99240.64
2019-05-23T14:05:13.569Z,99244.65
2019-05-23T14:10:19.731Z,99243.45
2019-05-23T14:15:29.134Z,99246.08
2019-05-23T14:20:34.865Z,99234.98
2019-05-23T14:25:51.214Z,99235.20
2019-05-23T14:31:04.830Z,99227.58
2019-05-23T14:36:32.777Z,99216.33
2019-05-23T14:41:45.825Z,99223.54
2019-05-23T14:47:16.105Z,99218.63
2019-05-23T14:52:27.819Z,99221.36
2019-05-23T14:57:34.879Z,99214.27
2019-05-23T15:02:40.933Z,99222.89
2019-05-23T15:07:47.624Z,99220.76
2019-05-23T15:12:53.199Z,99219.16
2019-05-23T15:17:58.624Z,99222.63
2019-05-23T15:23:06.706Z,99227.39
2019-05-23T15:28:12.496Z,99225.86
2019-05-23T15:33:18.049Z,99214.45
2019-05-23T15:38:23.567Z,99217.11
2019-05-23T15:49:55.419Z,99211.80
2019-05-23T15:55:37.012Z,99206.80
2019-05-23T16:01:02.180Z,99211.38
2019-05-23T16:06:11.806Z,99206.41
2019-05-23T16:11:18.800Z,99205.82
2019-05-23T16:16:26.243Z,99200.10
2019-05-23T16:21:32.421Z,99204.22
2019-05-23T16:26:38.397Z,99197.48
2019-05-23T16:31:44.485Z,99201.33
2019-05-23T16:36:50.130Z,99202.00
2019-05-23T16:41:56.053Z,99196.00
2019-05-23T16:47:01.667Z,99200.36
2019-05-23T16:52:09.829Z,99200.16
2019-05-23T16:57:28.097Z,99203.16
2019-05-23T17:02:52.271Z,99206.20
2019-05-23T17:08:23.915Z,99204.27
2019-05-23T17:13:37.488Z,99203.03
2019-05-23T17:18:54.524Z,99197.68
2019-05-23T17:24:22.829Z,99199.23
2019-05-23T17:29:38.145Z,99200.02
2019-05-23T17:34:45.943Z,99201.35
2019-05-23T17:39:53.513Z,99196.09
2019-05-23T17:44:59.263Z,99196.53
2019-05-23T17:50:07.238Z,99195.53
2019-05-23T17:55:14.636Z,99189.04
2019-05-23T18:00:24.349Z,99192.68
2019-05-23T18:05:30.113Z,99189.85
2019-05-23T18:10:44.411Z,99188.20
2019-05-23T18:15:46.005Z,99184.02
2019-05-23T18:20:52.706Z,99188.48
2019-05-23T18:25:58.326Z,99191.92
2019-05-23T18:31:13.603Z,99186.16
2019-05-23T18:36:23.219Z,99196.17
2019-05-23T18:41:30.505Z,99194.32
2019-05-23T18:46:44.142Z,99200.14
2019-05-23T18:51:59.840Z,99202.13
2019-05-23T18:57:06.905Z,99210.47
2019-05-23T19:02:12.710Z,99214.36
2019-05-23T19:07:22.302Z,99225.27
2019-05-23T19:12:38.515Z,99227.15
2019-05-23T19:17:47.077Z,99227.84
2019-05-23T19:22:56.663Z,99230.75
2019-05-23T19:33:17.685Z,99239.92
2019-05-23T19:38:23.693Z,99246.55
2019-05-23T19:43:32.174Z,99239.36
2019-05-23T19:48:40.010Z,99238.28
2019-05-23T19:53:48.636Z,99233.52
2019-05-23T19:58:55.499Z,99234.03
2019-05-23T20:04:02.187Z,99232.26
2019-05-23T20:09:11.227Z,99229.53
2019-05-23T20:14:20.466Z,99229.87
2019-05-23T20:19:27.064Z,99225.30
2019-05-23T20:24:34.943Z,99215.35
2019-05-23T20:29:40.926Z,99219.86
2019-05-23T20:34:48.758Z,99219.67
2019-05-23T20:39:54.420Z,99220.95
2019-05-23T20:45:03.411Z,99222.55
2019-05-23T20:50:10.931Z,99224.50
2019-05-23T20:55:16.676Z,99219.72
2019-05-23T21:00:30.694Z,99215.19
2019-05-23T21:05:36.427Z,99213.61
2019-05-23T21:10:49.714Z,99213.70
2019-05-23T21:15:56.586Z,99208.72
2019-05-23T21:21:02.206Z,99211.53
2019-05-23T21:26:08.416Z,99206.64
2019-05-23T21:31:22.787Z,99203.59
2019-05-23T21:36:28.420Z,99215.95
2019-05-23T21:41:33.996Z,99215.13
2019-05-23T21:46:39.801Z,99201.76
2019-05-23T21:51:45.336Z,99215.72
2019-05-23T21:56:51.024Z,99213.46
2019-05-23T22:02:04.769Z,99218.62
2019-05-23T22:07:13.376Z,99219.50
2019-05-23T22:12:21.383Z,99211.16
2019-05-23T22:17:28.092Z,99221.86
2019-05-23T22:22:33.712Z,99222.91
2019-05-23T22:27:40.130Z,99218.97
2019-05-23T22:32:48.896Z,99212.98
2019-05-23T22:37:54.616Z,99203.84
2019-05-23T22:43:00.402Z,99200.56
2019-05-23T22:48:07.449Z,99200.16
2019-05-23T22:53:14.541Z,99209.94
2019-05-23T22:58:20.351Z,99203.27
2019-05-23T23:03:25.836Z,99200.27
2019-05-23T23:08:32.491Z,99200.07
2019-05-23T23:13:39.320Z,99200.75
2019-05-23T23:18:50.688Z,99190.77
2019-05-23T23:23:56.306Z,99197.44
2019-05-23T23:29:01.930Z,99188.78
2019-05-23T23:34:07.566Z,99187.56
2019-05-23T23:39:13.309Z,99186.53
2019-05-23T23:44:20.529Z,99178.48
2019-05-23T23:49:43.514Z,99178.05
2019-05-23T23:55:11.256Z,99181.19
